createdAt,value
2018-01-26T00:00:39.385Z,19.30
2018-01-26T00:03:06.783Z,12.23
2018-01-26T00:05:34.109Z,11.07
2018-01-26T00:08:01.494Z,13.23
2018-01-26T00:10:28.826Z,9.07
2018-01-26T00:12:56.291Z,7.43
2018-01-26T00:15:23.645Z,9.37
2018-01-26T00:17:50.967Z,8.60
2018-01-26T00:20:18.351Z,14.73
2018-01-26T00:22:45.680Z,13.80
2018-01-26T00:25:13.029Z,8.57
2018-01-26T00:27:40.354Z,12.20
2018-01-26T00:30:07.736Z,7.60
2018-01-26T00:32:35.109Z,14.73
2018-01-26T00:35:02.442Z,8.70
2018-01-26T00:37:29.789Z,8.90
2018-01-26T00:39:57.113Z,7.40
2018-01-26T00:42:24.456Z,11.13
2018-01-26T00:44:51.793Z,8.80
2018-01-26T00:47:19.155Z,9.97
2018-01-26T00:49:46.480Z,10.27
2018-01-26T00:52:13.810Z,12.90
2018-01-26T00:54:41.162Z,7.93
2018-01-26T00:57:08.546Z,15.90
2018-01-26T00:59:35.909Z,11.30
2018-01-26T01:02:03.245Z,15.20
2018-01-26T01:04:30.612Z,10.70
2018-01-26T01:06:57.965Z,11.53
2018-01-26T01:09:25.314Z,11.20
2018-01-26T01:11:52.679Z,12.20
2018-01-26T01:14:20.009Z,9.07
2018-01-26T01:16:47.366Z,10.87
2018-01-26T01:19:14.699Z,11.70
2018-01-26T01:21:42.073Z,12.47
2018-01-26T01:24:09.402Z,11.40
2018-01-26T01:26:36.733Z,10.93
2018-01-26T01:29:04.085Z,8.00
2018-01-26T01:31:31.409Z,9.70
2018-01-26T01:33:58.783Z,9.47
2018-01-26T01:36:26.107Z,14.30
2018-01-26T01:38:53.469Z,10.67
2018-01-26T01:41:20.799Z,11.53
2018-01-26T01:43:48.166Z,15.00
2018-01-26T01:46:15.498Z,12.00
2018-01-26T01:48:42.834Z,10.70
2018-01-26T01:51:10.212Z,8.50
2018-01-26T01:53:37.545Z,9.27
2018-01-26T01:56:04.989Z,9.50
2018-01-26T01:58:32.326Z,11.10
2018-01-26T02:00:59.733Z,13.50
2018-01-26T02:03:27.055Z,6.97
2018-01-26T02:05:54.381Z,15.27
2018-01-26T02:08:21.760Z,12.90
2018-01-26T02:10:49.081Z,8.10
2018-01-26T02:13:16.473Z,9.67
2018-01-26T02:15:43.805Z,12.70
2018-01-26T02:18:11.228Z,9.87
2018-01-26T02:20:38.553Z,16.70
2018-01-26T02:23:05.887Z,13.20
2018-01-26T02:25:40.185Z,8.23
2018-01-26T02:28:07.530Z,7.57
2018-01-26T02:30:34.889Z,6.83
2018-01-26T02:33:02.242Z,10.57
2018-01-26T02:35:29.606Z,10.07
2018-01-26T02:37:56.965Z,15.73
2018-01-26T02:40:24.316Z,7.63
2018-01-26T02:42:51.644Z,11.27
2018-01-26T02:45:19.017Z,11.73
2018-01-26T02:47:46.345Z,12.10
2018-01-26T02:50:13.673Z,10.33
2018-01-26T02:52:41.028Z,12.77
2018-01-26T02:55:08.357Z,14.50
2018-01-26T02:57:35.719Z,11.20
2018-01-26T03:00:03.050Z,12.60
2018-01-26T03:02:30.425Z,10.83
2018-01-26T03:04:57.753Z,12.40
2018-01-26T03:07:25.086Z,15.50
2018-01-26T03:09:52.441Z,17.03
2018-01-26T03:12:19.850Z,14.47
2018-01-26T03:14:47.224Z,14.53
2018-01-26T03:17:14.557Z,14.03
2018-01-26T03:19:41.913Z,16.77
2018-01-26T03:22:09.271Z,13.43
2018-01-26T03:24:36.602Z,15.20
2018-01-26T03:27:03.959Z,10.50
2018-01-26T03:29:31.293Z,12.70
2018-01-26T03:31:58.653Z,9.30
2018-01-26T03:34:25.982Z,12.80
2018-01-26T03:36:53.339Z,11.23
2018-01-26T03:39:20.685Z,9.63
2018-01-26T03:41:48.113Z,7.37
2018-01-26T03:44:15.463Z,9.57
2018-01-26T03:46:42.824Z,7.40
2018-01-26T03:49:10.165Z,5.80
2018-01-26T03:51:37.496Z,6.53
2018-01-26T03:54:04.856Z,6.67
2018-01-26T03:56:32.178Z,7.00
2018-01-26T03:58:59.505Z,7.00
2018-01-26T04:01:26.856Z,5.80
2018-01-26T04:03:54.177Z,4.70
2018-01-26T04:06:21.528Z,4.23
2018-01-26T04:08:48.861Z,4.57
2018-01-26T04:11:16.217Z,4.13
2018-01-26T04:13:43.572Z,3.70
2018-01-26T04:16:10.905Z,4.80
2018-01-26T04:18:38.255Z,5.87
2018-01-26T04:21:05.645Z,6.03
2018-01-26T04:23:33.348Z,4.03
2018-01-26T04:26:00.669Z,3.47
2018-01-26T04:28:28.033Z,5.80
2018-01-26T04:30:55.361Z,3.30
2018-01-26T04:33:22.685Z,4.40
2018-01-26T04:35:50.120Z,4.80
2018-01-26T04:38:17.450Z,4.37
2018-01-26T04:40:44.798Z,5.83
2018-01-26T04:43:12.152Z,4.27
2018-01-26T04:45:39.510Z,4.70
2018-01-26T04:48:06.835Z,6.43
2018-01-26T04:50:34.166Z,4.13
2018-01-26T04:53:01.507Z,5.00
2018-01-26T04:55:28.834Z,5.80
2018-01-26T04:57:56.177Z,6.47
2018-01-26T05:00:23.500Z,5.90
2018-01-26T05:02:50.882Z,6.60
2018-01-26T05:05:18.207Z,5.97
2018-01-26T05:07:45.557Z,5.50
2018-01-26T05:10:12.990Z,4.10
2018-01-26T05:12:40.306Z,4.30
2018-01-26T05:15:07.664Z,7.50
2018-01-26T05:17:34.989Z,5.93
2018-01-26T05:20:02.332Z,5.47
2018-01-26T05:22:29.653Z,4.40
2018-01-26T05:24:57.116Z,5.83
2018-01-26T05:27:24.444Z,4.57
2018-01-26T05:29:51.766Z,5.77
2018-01-26T05:32:19.117Z,5.50
2018-01-26T05:34:46.446Z,5.60
2018-01-26T05:37:13.799Z,6.33
2018-01-26T05:39:41.121Z,5.20
2018-01-26T05:42:08.632Z,6.30
2018-01-26T05:44:36.005Z,7.63
2018-01-26T05:47:03.325Z,6.80
2018-01-26T05:49:30.679Z,6.20
2018-01-26T05:51:57.994Z,5.60
2018-01-26T05:54:25.349Z,6.10
2018-01-26T05:56:52.681Z,5.90
2018-01-26T05:59:20.034Z,5.53
2018-01-26T06:01:47.371Z,5.83
2018-01-26T06:04:14.762Z,13.57
2018-01-26T06:06:42.086Z,5.00
2018-01-26T06:09:09.402Z,6.50
2018-01-26T06:11:36.751Z,8.00
2018-01-26T06:14:04.075Z,6.07
2018-01-26T06:16:31.421Z,5.77
2018-01-26T06:18:58.744Z,5.50
2018-01-26T06:21:26.185Z,3.47
2018-01-26T06:23:53.497Z,4.40
2018-01-26T06:26:20.862Z,3.80
2018-01-26T06:28:48.180Z,5.00
2018-01-26T06:31:15.516Z,4.17
2018-01-26T06:33:42.860Z,5.13
2018-01-26T06:36:10.191Z,3.30
2018-01-26T06:38:37.542Z,2.70
2018-01-26T06:41:04.864Z,2.00
2018-01-26T06:43:32.216Z,2.07
2018-01-26T06:45:59.539Z,2.30
2018-01-26T06:48:26.897Z,8.03
2018-01-26T06:50:54.236Z,3.63
2018-01-26T06:53:21.559Z,4.40
2018-01-26T06:55:48.905Z,2.83
2018-01-26T06:58:16.226Z,2.63
2018-01-26T07:00:43.574Z,2.80
2018-01-26T07:03:10.923Z,2.53
2018-01-26T07:05:38.276Z,2.07
2018-01-26T07:08:05.605Z,2.40
2018-01-26T07:10:32.928Z,5.20
2018-01-26T07:13:00.269Z,2.93
2018-01-26T07:15:27.674Z,2.63
2018-01-26T07:17:55.030Z,3.10
2018-01-26T07:20:22.350Z,4.70
2018-01-26T07:22:49.709Z,9.00
2018-01-26T07:25:17.029Z,8.27
2018-01-26T07:27:44.360Z,14.37
2018-01-26T07:30:11.719Z,86.57
2018-01-26T07:32:39.058Z,28.23
2018-01-26T07:35:06.401Z,4.80
2018-01-26T07:37:33.741Z,1.80
2018-01-26T07:40:01.091Z,2.20
2018-01-26T07:42:28.426Z,2.30
2018-01-26T07:44:55.831Z,2.10
2018-01-26T07:47:23.181Z,3.70
2018-01-26T07:49:50.503Z,2.83
2018-01-26T07:52:17.857Z,3.00
2018-01-26T07:54:45.204Z,4.57
2018-01-26T07:57:12.556Z,8.93
2018-01-26T07:59:39.886Z,7.93
2018-01-26T08:02:07.237Z,4.17
2018-01-26T08:04:34.566Z,5.60
2018-01-26T08:07:01.893Z,8.63
2018-01-26T08:09:29.263Z,11.00
2018-01-26T08:11:56.586Z,7.60
2018-01-26T08:14:24.089Z,6.20
2018-01-26T08:16:51.466Z,10.80
2018-01-26T08:19:18.819Z,9.43
2018-01-26T08:21:46.152Z,5.83
2018-01-26T08:24:13.615Z,5.80
2018-01-26T08:26:40.944Z,8.73
2018-01-26T08:29:08.270Z,13.20
2018-01-26T08:31:35.622Z,8.93
2018-01-26T08:34:02.947Z,10.13
2018-01-26T08:36:30.293Z,5.77
2018-01-26T08:38:57.715Z,3.93
2018-01-26T08:41:25.070Z,3.87
2018-01-26T08:43:52.426Z,3.90
2018-01-26T08:46:19.754Z,5.70
2018-01-26T08:48:47.101Z,7.33
2018-01-26T08:51:14.430Z,3.90
2018-01-26T08:53:41.782Z,4.53
2018-01-26T08:56:09.103Z,3.23
2018-01-26T08:58:36.462Z,2.63
2018-01-26T09:01:03.790Z,3.60
2018-01-26T09:03:31.114Z,4.73
2018-01-26T09:05:58.486Z,4.30
2018-01-26T09:08:25.805Z,3.97
2018-01-26T09:10:53.146Z,3.33
2018-01-26T09:13:20.472Z,3.10
2018-01-26T09:15:47.834Z,5.20
2018-01-26T09:18:15.159Z,4.93
2018-01-26T09:20:42.590Z,6.83
2018-01-26T09:23:09.933Z,3.57
2018-01-26T09:25:37.263Z,3.03
2018-01-26T09:28:04.628Z,4.90
2018-01-26T09:30:31.965Z,3.27
2018-01-26T09:32:59.329Z,4.27
2018-01-26T09:35:26.649Z,3.80
2018-01-26T09:37:53.977Z,5.10
2018-01-26T09:40:21.330Z,3.40
2018-01-26T09:42:48.791Z,3.80
2018-01-26T09:45:16.268Z,5.17
2018-01-26T09:47:43.610Z,6.73
2018-01-26T09:50:10.966Z,7.17
2018-01-26T09:52:38.293Z,5.33
2018-01-26T09:55:05.619Z,11.60
2018-01-26T09:57:32.980Z,5.00
2018-01-26T10:00:00.306Z,4.90
2018-01-26T10:02:27.655Z,6.17
2018-01-26T10:04:54.977Z,8.37
2018-01-26T10:07:22.340Z,4.63
2018-01-26T10:09:49.764Z,5.23
2018-01-26T10:12:17.133Z,3.47
2018-01-26T10:14:44.510Z,4.13
2018-01-26T10:17:11.830Z,4.93
2018-01-26T10:19:39.287Z,4.87
2018-01-26T10:22:06.628Z,6.97
2018-01-26T10:24:33.983Z,6.80
2018-01-26T10:27:01.307Z,5.40
2018-01-26T10:29:28.629Z,5.70
2018-01-26T10:31:55.983Z,6.37
2018-01-26T10:34:23.306Z,5.87
2018-01-26T10:36:50.663Z,5.47
2018-01-26T10:39:17.974Z,5.73
2018-01-26T10:41:45.326Z,6.63
2018-01-26T10:44:12.645Z,5.60
2018-01-26T10:46:40.009Z,5.13
2018-01-26T10:49:07.340Z,5.73
2018-01-26T10:51:34.664Z,5.83
2018-01-26T10:54:02.026Z,6.20
2018-01-26T10:56:29.351Z,5.57
2018-01-26T10:58:57.118Z,4.67
2018-01-26T11:01:24.472Z,5.27
2018-01-26T11:03:51.820Z,10.17
2018-01-26T11:06:19.148Z,5.60
2018-01-26T11:08:46.512Z,5.83
2018-01-26T11:11:13.833Z,4.53
2018-01-26T11:13:41.158Z,4.83
2018-01-26T11:16:08.501Z,5.67
2018-01-26T11:18:35.837Z,5.30
2018-01-26T11:21:03.193Z,3.80
2018-01-26T11:23:30.545Z,7.00
2018-01-26T11:25:57.907Z,5.40
2018-01-26T11:28:25.243Z,4.93
2018-01-26T11:30:52.568Z,4.93
2018-01-26T11:33:19.910Z,5.93
2018-01-26T11:35:47.235Z,5.50
2018-01-26T11:38:14.590Z,7.70
2018-01-26T11:40:41.913Z,7.70
2018-01-26T11:43:09.350Z,6.17
2018-01-26T11:45:36.681Z,6.73
2018-01-26T11:48:04.005Z,3.93
2018-01-26T11:50:31.363Z,9.00
2018-01-26T11:52:58.688Z,3.60
2018-01-26T11:55:26.031Z,4.63
2018-01-26T11:57:53.436Z,4.03
2018-01-26T12:00:20.734Z,4.60
2018-01-26T12:02:48.062Z,3.93
2018-01-26T12:05:15.409Z,5.70
2018-01-26T12:07:42.733Z,5.90
2018-01-26T12:10:10.090Z,4.70
2018-01-26T12:12:37.426Z,4.73
2018-01-26T12:15:04.753Z,5.57
2018-01-26T12:17:32.109Z,5.90
2018-01-26T12:19:59.429Z,5.13
2018-01-26T12:22:26.785Z,4.90
2018-01-26T12:24:54.536Z,5.33
2018-01-26T12:27:22.298Z,4.90
2018-01-26T12:29:49.989Z,4.53
2018-01-26T12:32:17.720Z,5.57
2018-01-26T12:34:45.488Z,3.37
2018-01-26T12:37:12.872Z,7.60
2018-01-26T12:39:40.217Z,4.87
2018-01-26T12:42:07.540Z,7.00
2018-01-26T12:44:34.902Z,4.53
2018-01-26T12:47:02.274Z,4.50
2018-01-26T12:49:29.673Z,4.57
2018-01-26T12:51:57.052Z,4.83
2018-01-26T12:54:24.456Z,9.07
2018-01-26T12:56:51.828Z,6.93
2018-01-26T12:59:19.197Z,7.60
2018-01-26T13:01:46.574Z,3.20
2018-01-26T13:04:13.935Z,4.60
2018-01-26T13:06:41.337Z,12.53
2018-01-26T13:09:08.737Z,7.50
2018-01-26T13:11:36.085Z,2.43
2018-01-26T13:14:03.535Z,9.20
2018-01-26T13:16:30.973Z,2.57
2018-01-26T13:18:58.342Z,4.97
2018-01-26T13:21:25.731Z,3.33
2018-01-26T13:23:53.117Z,3.50
2018-01-26T13:26:20.480Z,5.70
2018-01-26T13:28:47.866Z,2.80
2018-01-26T13:31:15.233Z,2.67
2018-01-26T13:33:42.639Z,2.67
2018-01-26T13:36:10.008Z,2.67
2018-01-26T13:38:37.376Z,2.93
2018-01-26T13:41:04.720Z,3.13
2018-01-26T13:43:32.095Z,3.23
2018-01-26T13:45:59.450Z,5.13
2018-01-26T13:48:26.778Z,3.63
2018-01-26T13:50:54.127Z,4.37
2018-01-26T13:53:21.450Z,4.00
2018-01-26T13:55:48.776Z,3.50
2018-01-26T13:58:16.128Z,3.00
2018-01-26T14:00:43.449Z,3.90
2018-01-26T14:03:10.805Z,3.30
2018-01-26T14:05:38.137Z,3.50
2018-01-26T14:08:05.480Z,4.37
2018-01-26T14:10:32.814Z,3.53
2018-01-26T14:13:00.146Z,6.33
2018-01-26T14:15:27.495Z,5.23
2018-01-26T14:17:54.822Z,7.40
2018-01-26T14:20:22.166Z,6.00
2018-01-26T14:22:49.489Z,4.50
2018-01-26T14:25:16.840Z,7.87
2018-01-26T14:27:44.166Z,4.70
2018-01-26T14:30:11.636Z,5.10
2018-01-26T14:32:38.961Z,6.07
2018-01-26T14:35:06.281Z,6.30
2018-01-26T14:37:33.636Z,8.23
2018-01-26T14:40:01.051Z,6.63
2018-01-26T14:42:28.405Z,6.00
2018-01-26T14:44:55.734Z,7.00
2018-01-26T14:47:23.120Z,5.87
2018-01-26T14:49:50.436Z,9.07
2018-01-26T14:52:17.784Z,6.60
2018-01-26T14:54:45.137Z,15.83
2018-01-26T14:57:12.468Z,8.10
2018-01-26T14:59:39.814Z,9.30
2018-01-26T15:02:07.143Z,9.47
2018-01-26T15:04:34.516Z,7.87
2018-01-26T15:07:01.850Z,11.40
2018-01-26T15:09:29.185Z,12.30
2018-01-26T15:11:56.539Z,9.00
2018-01-26T15:14:23.863Z,9.63
2018-01-26T15:16:51.208Z,9.30
2018-01-26T15:19:18.579Z,9.77
2018-01-26T15:21:46.089Z,10.23
2018-01-26T15:24:13.461Z,12.10
2018-01-26T15:26:40.777Z,8.43
2018-01-26T15:29:08.176Z,13.60
2018-01-26T15:31:35.510Z,10.10
2018-01-26T15:34:02.867Z,15.07
2018-01-26T15:36:30.201Z,11.37
2018-01-26T15:38:57.605Z,10.23
2018-01-26T15:41:24.930Z,9.50
2018-01-26T15:43:52.661Z,11.13
2018-01-26T15:46:20.319Z,8.13
2018-01-26T15:48:47.977Z,9.37
2018-01-26T15:51:15.387Z,10.23
2018-01-26T15:53:43.035Z,12.70
2018-01-26T15:56:10.842Z,13.50
2018-01-26T15:58:38.245Z,13.80
2018-01-26T16:01:05.609Z,52.20
2018-01-26T16:03:33.027Z,15.37
2018-01-26T16:06:00.425Z,10.30
2018-01-26T16:08:27.832Z,9.43
2018-01-26T16:10:55.191Z,11.83
2018-01-26T16:13:22.613Z,8.77
2018-01-26T16:15:55.697Z,8.03
2018-01-26T16:18:23.110Z,5.27
2018-01-26T16:20:50.434Z,9.00
2018-01-26T16:23:17.805Z,5.97
2018-01-26T16:25:45.200Z,4.23
2018-01-26T16:28:12.571Z,5.97
2018-01-26T16:30:39.918Z,3.73
2018-01-26T16:33:07.289Z,4.20
2018-01-26T16:35:34.681Z,3.83
2018-01-26T16:38:02.053Z,3.87
2018-01-26T16:40:29.465Z,4.20
2018-01-26T16:42:56.796Z,3.80
2018-01-26T16:45:24.184Z,3.53
2018-01-26T16:47:51.584Z,4.27
2018-01-26T16:50:18.953Z,4.80
2018-01-26T16:52:46.294Z,4.10
2018-01-26T16:55:13.673Z,6.80
2018-01-26T16:57:41.115Z,4.13
2018-01-26T17:00:08.498Z,3.40
2018-01-26T17:02:35.933Z,3.57
2018-01-26T17:05:03.662Z,3.80
2018-01-26T17:07:31.037Z,4.70
2018-01-26T17:09:58.758Z,8.00
2018-01-26T17:12:26.456Z,7.23
2018-01-26T17:14:53.798Z,7.90
2018-01-26T17:17:21.177Z,5.00
2018-01-26T17:19:48.522Z,5.10
2018-01-26T17:22:15.900Z,8.20
2018-01-26T17:24:43.257Z,8.75
2018-01-26T17:27:10.603Z,8.30
2018-01-26T17:29:37.946Z,5.80
2018-01-26T17:32:05.300Z,6.07
2018-01-26T17:34:32.707Z,5.13
2018-01-26T17:37:00.108Z,12.53
2018-01-26T17:39:27.429Z,7.83
2018-01-26T17:41:54.773Z,9.13
2018-01-26T17:44:22.300Z,6.40
2018-01-26T17:46:50.621Z,7.17
2018-01-26T17:49:17.972Z,12.10
2018-01-26T17:51:45.344Z,9.40
2018-01-26T17:54:12.750Z,7.87
2018-01-26T17:56:40.227Z,10.23
2018-01-26T17:59:07.753Z,9.97
2018-01-26T18:01:35.210Z,14.77
2018-01-26T18:04:02.546Z,5.87
2018-01-26T18:06:29.893Z,8.13
2018-01-26T18:08:57.215Z,7.47
2018-01-26T18:11:24.608Z,6.80
2018-01-26T18:13:51.943Z,8.53
2018-01-26T18:16:19.965Z,11.97
2018-01-26T18:18:47.411Z,10.87
2018-01-26T18:21:14.800Z,8.57
2018-01-26T18:23:42.238Z,6.93
2018-01-26T18:26:09.600Z,6.90
2018-01-26T18:28:37.017Z,7.73
2018-01-26T18:31:04.337Z,7.47
2018-01-26T18:33:31.702Z,8.00
2018-01-26T18:35:59.081Z,8.00
2018-01-26T18:38:26.567Z,6.13
2018-01-26T18:40:53.965Z,7.77
2018-01-26T18:43:21.289Z,10.60
2018-01-26T18:45:48.650Z,10.17
2018-01-26T18:48:16.033Z,7.90
2018-01-26T18:50:43.401Z,8.80
2018-01-26T18:53:10.741Z,9.03
2018-01-26T18:55:38.124Z,11.30
2018-01-26T18:58:05.518Z,8.13
2018-01-26T19:00:32.874Z,13.93
2018-01-26T19:03:00.262Z,9.53
2018-01-26T19:05:28.078Z,9.10
2018-01-26T19:07:55.452Z,12.93
2018-01-26T19:10:22.820Z,9.80
2018-01-26T19:12:50.150Z,12.73
2018-01-26T19:15:17.582Z,17.00
2018-01-26T19:17:45.469Z,8.17
2018-01-26T19:20:13.026Z,10.43
2018-01-26T19:22:40.411Z,11.40
2018-01-26T19:25:07.948Z,9.50
2018-01-26T19:27:35.454Z,12.43
2018-01-26T19:30:02.939Z,10.60
2018-01-26T19:32:30.389Z,10.90
2018-01-26T19:34:57.980Z,11.17
2018-01-26T19:37:25.534Z,12.03
2018-01-26T19:39:53.043Z,13.17
2018-01-26T19:42:20.463Z,10.60
2018-01-26T19:44:47.970Z,9.23
2018-01-26T19:47:15.475Z,10.07
2018-01-26T19:49:43.134Z,11.90
2018-01-26T19:52:10.592Z,11.47
2018-01-26T19:54:38.046Z,11.03
2018-01-26T19:57:05.435Z,12.13
2018-01-26T19:59:33.006Z,15.73
2018-01-26T20:02:00.464Z,12.00
2018-01-26T20:04:33.641Z,15.07
2018-01-26T20:07:12.855Z,17.33
2018-01-26T20:09:40.294Z,14.70
2018-01-26T20:12:11.561Z,11.17
2018-01-26T20:14:38.954Z,12.13
2018-01-26T20:17:06.312Z,10.50
2018-01-26T20:19:33.641Z,12.13
2018-01-26T20:22:01.049Z,11.97
2018-01-26T20:24:28.439Z,10.80
2018-01-26T20:26:55.872Z,14.27
2018-01-26T20:29:23.305Z,14.17
2018-01-26T20:31:50.657Z,16.50
2018-01-26T20:34:18.133Z,13.43
2018-01-26T20:36:45.610Z,12.13
2018-01-26T20:39:13.171Z,11.37
2018-01-26T20:41:40.581Z,8.87
2018-01-26T20:44:08.149Z,10.15
2018-01-26T20:46:35.642Z,14.63
2018-01-26T20:49:03.126Z,11.00
2018-01-26T20:51:30.477Z,10.60
2018-01-26T20:53:57.998Z,9.10
2018-01-26T20:56:25.405Z,11.40
2018-01-26T20:58:52.794Z,13.30
2018-01-26T21:01:20.708Z,11.53
2018-01-26T21:03:48.049Z,11.17
2018-01-26T21:06:15.538Z,16.40
2018-01-26T21:08:42.944Z,12.73
2018-01-26T21:11:10.320Z,13.73
2018-01-26T21:13:37.682Z,13.53
2018-01-26T21:16:05.104Z,18.77
2018-01-26T21:18:32.587Z,26.37
2018-01-26T21:20:59.922Z,24.40
2018-01-26T21:23:27.257Z,20.70
2018-01-26T21:25:54.785Z,20.70
2018-01-26T21:28:22.228Z,16.77
2018-01-26T21:30:49.630Z,12.27
2018-01-26T21:33:17.017Z,12.10
2018-01-26T21:35:44.432Z,13.30
2018-01-26T21:38:11.812Z,11.70
2018-01-26T21:40:39.140Z,15.40
2018-01-26T21:43:06.648Z,13.60
2018-01-26T21:45:34.018Z,12.40
2018-01-26T21:48:01.449Z,11.73
2018-01-26T21:50:28.876Z,11.53
2018-01-26T21:52:56.286Z,13.40
2018-01-26T21:55:23.661Z,13.63
2018-01-26T21:57:51.043Z,15.17
2018-01-26T22:00:18.473Z,17.80
2018-01-26T22:02:45.941Z,20.33
2018-01-26T22:05:15.334Z,16.57
2018-01-26T22:07:42.713Z,21.20
2018-01-26T22:10:10.078Z,23.10
2018-01-26T22:12:37.462Z,16.40
2018-01-26T22:15:04.873Z,28.30
2018-01-26T22:17:32.221Z,29.90
2018-01-26T22:19:59.613Z,19.93
2018-01-26T22:22:26.969Z,22.17
2018-01-26T22:24:54.330Z,22.00
2018-01-26T22:27:21.740Z,20.23
2018-01-26T22:29:49.115Z,21.53
2018-01-26T22:32:16.467Z,20.33
2018-01-26T22:34:43.871Z,21.10
2018-01-26T22:37:11.316Z,24.37
2018-01-26T22:39:38.645Z,22.57
2018-01-26T22:42:06.035Z,26.00
2018-01-26T22:44:33.442Z,20.47
2018-01-26T22:47:00.828Z,20.10
2018-01-26T22:49:28.243Z,22.53
2018-01-26T22:51:55.625Z,20.77
2018-01-26T22:54:22.982Z,21.03
2018-01-26T22:56:50.368Z,20.23
2018-01-26T22:59:17.844Z,21.27
2018-01-26T23:01:45.215Z,23.80
2018-01-26T23:04:12.638Z,22.13
2018-01-26T23:06:40.000Z,21.40
2018-01-26T23:09:07.350Z,22.97
2018-01-26T23:11:34.764Z,22.87
2018-01-26T23:14:02.148Z,21.63
2018-01-26T23:16:29.617Z,20.47
2018-01-26T23:18:57.074Z,25.70
2018-01-26T23:21:24.456Z,28.77
2018-01-26T23:23:51.845Z,25.80
2018-01-26T23:26:19.341Z,26.50
2018-01-26T23:28:46.761Z,23.60
2018-01-26T23:31:14.179Z,25.23
2018-01-26T23:33:41.550Z,24.13
2018-01-26T23:36:08.929Z,24.43
2018-01-26T23:38:36.422Z,26.03
2018-01-26T23:41:03.822Z,24.40
2018-01-26T23:43:31.166Z,22.00
2018-01-26T23:45:58.581Z,24.03
2018-01-26T23:48:25.913Z,24.73
2018-01-26T23:50:53.326Z,24.27
2018-01-26T23:53:20.705Z,27.80
2018-01-26T23:55:48.238Z,27.00
2018-01-26T23:58:15.664Z,24.53
